Nocc Oceanic — V7YQ4 — position and weather

sailwx.info

Track history (hours):
 
Tides and Currents Weather Stations Pressure Air Temp Water Temp Dewpoint Dewpoint Depression Visibility Wind Speed Wind Dir Waves Ship Positions

Nocc Oceanic

Last reported at 2018-Jan-12 07:21 UTC. Time now 2018-Feb-22 04:35 UTC.
Position S 38°09' E 144°55'.
Warning: this ship's position is 40 days out of date.

Length 199 m; draft 8 m.

Type: Ship. MMSI: 538004709.

Date/timePositionNaut miles runAvg speedWind from/ knotsBaromVisibWave heightAir tempDewpointWater temp
2018-Jan-12 07:21S 38°09' E 144°55'717.9
2018-Jan-12 06:58S 38°02' E 144°55'716.5
2018-Jan-12 06:30S 37°54' E 144°56'4 0.4
2018-Jan-11 19:36S 37°51' E 144°54'0 0.0
2018-Jan-11 19:12S 37°51' E 144°54'0 0.0
2018-Jan-11 18:48S 37°51' E 144°54'0 0.0
2018-Jan-11 18:21S 37°51' E 144°54'0 0.0
2018-Jan-11 18:00S 37°51' E 144°54'0 0.0
2018-Jan-11 16:18S 37°51' E 144°54'0 0.0
2018-Jan-11 16:00S 37°51' E 144°54'0 0.0
2018-Jan-11 15:30S 37°51' E 144°54'0 0.0
2018-Jan-11 14:36S 37°51' E 144°54'0 0.0
2018-Jan-11 13:54S 37°51' E 144°54'0 0.0
2018-Jan-11 13:24S 37°51' E 144°54'0 0.0
2018-Jan-11 12:57S 37°51' E 144°54'0 0.0
2018-Jan-11 12:24S 37°51' E 144°54'0 0.0
2018-Jan-11 11:03S 37°51' E 144°54'0 0.0
2018-Jan-11 11:00S 37°51' E 144°54'0 0.0
2018-Jan-11 10:30S 37°51' E 144°54'0 0.8
2018-Jan-11 09:59S 37°51' E 144°55'4 7.4
2018-Jan-11 09:28S 37°55' E 144°56'714.9
2018-Jan-11 09:00S 38°02' E 144°55'2112.0
2018-Jan-11 07:17S 38°17' E 144°38'713.4
2018-Jan-11 06:46S 38°23' E 144°32'1911.8
2018-Jan-11 05:09S 38°37' E 144°48'213.9
2018-Jan-11 05:01S 38°38' E 144°50'814.7
2018-Jan-11 04:29S 38°42' E 144°59'2315.1
2018-Jan-11 02:59S 38°52' E 145°25'2215.3
2018-Jan-11 01:31S 39°03' E 145°50'115.7
2018-Jan-11 01:28S 39°03' E 145°51'715.1
2018-Jan-11 01:00S 39°06' E 145°59'715.1
2018-Jan-11 00:30S 39°10' E 146°08'914.8
2018-Jan-10 23:54S 39°13' E 146°18'1414.7
2018-Jan-10 22:58S 39°08' E 146°35'714.6
2018-Jan-10 22:30S 39°06' E 146°43'714.6
2018-Jan-10 22:00S 39°04' E 146°52'814.8
2018-Jan-10 21:29S 39°01' E 147°02'1015.0
2018-Jan-10 20:49S 38°58' E 147°14'4115.7
2018-Jan-10 18:13S 38°45' E 148°04'2115.6
2018-Jan-10 16:53S 38°37' E 148°28'915.4
2018-Jan-10 16:16S 38°32' E 148°39'615.1
2018-Jan-10 15:51S 38°28' E 148°45'615.2
2018-Jan-10 15:29S 38°25' E 148°51'815.2
2018-Jan-10 14:56S 38°20' E 148°59'615.3
2018-Jan-10 14:30S 38°16' E 149°06'815.2
2018-Jan-10 13:58S 38°11' E 149°14'1615.2
2018-Jan-10 12:55S 38°02' E 149°31'261 5.6
2018-Jan-08 14:37S 34°02' E 151°41'215.0
2018-Jan-08 14:30S 34°02' E 151°42'2714.2
2018-Jan-08 12:37S 33°49' E 152°11'214.0
2018-Jan-08 12:30S 33°48' E 152°13'714.6
2018-Jan-08 12:00S 33°44' E 152°20'714.9
2018-Jan-08 11:31S 33°40' E 152°27'815.6
2018-Jan-08 11:01S 33°36' E 152°35'816.2
2018-Jan-08 10:30S 33°31' E 152°43'1016.5
2018-Jan-08 09:55S 33°24' E 152°51'716.6
2018-Jan-08 09:29S 33°18' E 152°56'816.8
2018-Jan-08 09:01S 33°12' E 153°02'816.6
2018-Jan-08 08:30S 33°05' E 153°08'816.3
2018-Jan-08 08:01S 32°58' E 153°13'916.0
2018-Jan-08 07:28S 32°52' E 153°19'715.7
2018-Jan-08 07:01S 32°46' E 153°24'815.9
2018-Jan-08 06:30S 32°39' E 153°30'815.9
2018-Jan-08 06:00S 32°33' E 153°36'816.1
2018-Jan-08 05:31S 32°26' E 153°41'815.5
2018-Jan-08 05:00S 32°20' E 153°47'714.9
2018-Jan-08 04:31S 32°13' E 153°51'21218.2
2018-Jan-07 16:53S 28°42' E 153°49'1520.3
2018-Jan-07 16:08S 28°26' E 153°49'320.9
2018-Jan-07 16:01S 28°24' E 153°49'1121.0
2018-Jan-07 15:30S 28°13' E 153°49'1020.8
2018-Jan-07 15:01S 28°03' E 153°49'1020.2
2018-Jan-07 14:31S 27°53' E 153°48'1020.0
2018-Jan-07 14:01S 27°43' E 153°46'1020.0
2018-Jan-07 13:30S 27°33' E 153°44'1019.6
2018-Jan-07 13:01S 27°23' E 153°42'1019.4
2018-Jan-07 12:29S 27°13' E 153°41'919.6
2018-Jan-07 12:01S 27°04' E 153°39'1019.8
2018-Jan-07 11:30S 26°55' E 153°34'1019.2
2018-Jan-07 10:59S 26°50' E 153°25'918.0
2018-Jan-07 10:31S 26°45' E 153°16'510.5
2018-Jan-07 10:00S 26°43' E 153°11'714.4
2018-Jan-07 09:31S 26°50' E 153°09'917.3
2018-Jan-07 09:01S 26°58' E 153°13'816.4
2018-Jan-07 08:31S 27°05' E 153°19'816.7
2018-Jan-07 08:01S 27°13' E 153°20'815.8
2018-Jan-07 07:30S 27°18' E 153°13'610.7
2018-Jan-07 06:58S 27°23' E 153°10'0 0.0
2018-Jan-07 06:25S 27°23' E 153°10'0 0.0
2018-Jan-07 05:58S 27°23' E 153°10'0 0.0
2018-Jan-07 05:28S 27°23' E 153°10'0 0.0
2018-Jan-07 04:58S 27°23' E 153°10'0 0.0
2018-Jan-07 04:28S 27°23' E 153°10'0 0.0
2018-Jan-07 03:58S 27°23' E 153°10'0 0.0
2018-Jan-07 03:28S 27°23' E 153°10'0 0.0
2018-Jan-07 02:58S 27°23' E 153°10'0 0.0
2018-Jan-07 02:28S 27°23' E 153°10'0 0.0
2018-Jan-07 01:58S 27°23' E 153°10'0 0.0
2018-Jan-07 01:28S 27°23' E 153°10'0 0.0
2018-Jan-07 00:28S 27°23' E 153°10'0 0.0
2018-Jan-06 23:58S 27°23' E 153°10'0 0.0
2018-Jan-06 23:25S 27°23' E 153°10'0 0.0
2018-Jan-06 22:58S 27°23' E 153°10'0 0.0
2018-Jan-06 22:28S 27°23' E 153°10'0 0.0
2018-Jan-06 21:58S 27°23' E 153°10'0 0.0
2018-Jan-06 21:28S 27°23' E 153°10'0 0.0
2018-Jan-06 20:58S 27°23' E 153°10'0 0.0
2018-Jan-06 20:28S 27°23' E 153°10'0 0.0
2018-Jan-06 19:58S 27°23' E 153°10'0 0.0
2018-Jan-06 19:28S 27°23' E 153°10'0 0.0
2018-Jan-06 18:58S 27°23' E 153°10'0 0.0
2018-Jan-06 18:28S 27°23' E 153°10'0 0.0
2018-Jan-06 17:58S 27°23' E 153°10'0 0.0
2018-Jan-06 17:28S 27°23' E 153°10'0 0.0
2018-Jan-06 16:58S 27°23' E 153°10'0 0.0
2018-Jan-06 16:28S 27°23' E 153°10'0 0.0
2018-Jan-06 16:00S 27°23' E 153°10'1 2.7
2018-Jan-06 15:30S 27°21' E 153°11'612.8
2018-Jan-06 15:01S 27°17' E 153°15'815.4
2018-Jan-06 14:31S 27°11' E 153°21'816.0
2018-Jan-06 14:01S 27°03' E 153°18'815.8
2018-Jan-06 13:31S 26°57' E 153°13'815.5
2018-Jan-06 13:01S 26°50' E 153°09'713.5
2018-Jan-06 12:30S 26°43' E 153°11'3 5.1
2018-Jan-06 12:00S 26°41' E 153°13'3 5.4
2018-Jan-06 11:30S 26°39' E 153°14'3 6.1
2018-Jan-06 11:00S 26°36' E 153°15'713.3
2018-Jan-06 10:30S 26°29' E 153°16'816.7
2018-Jan-06 10:00S 26°21' E 153°18'917.0
2018-Jan-06 09:30S 26°13' E 153°20'917.8
2018-Jan-06 09:00S 26°04' E 153°22'  
Track history (hours):
 
Tides and Currents Weather Stations Pressure Air Temp Water Temp Dewpoint Dewpoint Depression Visibility Wind Speed Wind Dir Waves Ship Positions

Nocc Oceanic

Last reported at 2018-Jan-12 07:21 UTC. Time now 2018-Feb-22 04:35 UTC.
Position S 38°09' E 144°55'.
Warning: this ship's position is 40 days out of date.

Length 199 m; draft 8 m.

Type: Ship. MMSI: 538004709.

Date/timePositionNaut miles runAvg speedWind from/ knotsBaromVisibWave heightAir tempDewpointWater temp
2018-Jan-12 07:21S 38°09' E 144°55'717.9
2018-Jan-12 06:58S 38°02' E 144°55'716.5
2018-Jan-12 06:30S 37°54' E 144°56'4 0.4
2018-Jan-11 19:36S 37°51' E 144°54'0 0.0
2018-Jan-11 19:12S 37°51' E 144°54'0 0.0
2018-Jan-11 18:48S 37°51' E 144°54'0 0.0
2018-Jan-11 18:21S 37°51' E 144°54'0 0.0
2018-Jan-11 18:00S 37°51' E 144°54'0 0.0
2018-Jan-11 16:18S 37°51' E 144°54'0 0.0
2018-Jan-11 16:00S 37°51' E 144°54'0 0.0
2018-Jan-11 15:30S 37°51' E 144°54'0 0.0
2018-Jan-11 14:36S 37°51' E 144°54'0 0.0
2018-Jan-11 13:54S 37°51' E 144°54'0 0.0
2018-Jan-11 13:24S 37°51' E 144°54'0 0.0
2018-Jan-11 12:57S 37°51' E 144°54'0 0.0
2018-Jan-11 12:24S 37°51' E 144°54'0 0.0
2018-Jan-11 11:03S 37°51' E 144°54'0 0.0
2018-Jan-11 11:00S 37°51' E 144°54'0 0.0
2018-Jan-11 10:30S 37°51' E 144°54'0 0.8
2018-Jan-11 09:59S 37°51' E 144°55'4 7.4
2018-Jan-11 09:28S 37°55' E 144°56'714.9
2018-Jan-11 09:00S 38°02' E 144°55'2112.0
2018-Jan-11 07:17S 38°17' E 144°38'713.4
2018-Jan-11 06:46S 38°23' E 144°32'1911.8
2018-Jan-11 05:09S 38°37' E 144°48'213.9
2018-Jan-11 05:01S 38°38' E 144°50'814.7
2018-Jan-11 04:29S 38°42' E 144°59'2315.1
2018-Jan-11 02:59S 38°52' E 145°25'2215.3
2018-Jan-11 01:31S 39°03' E 145°50'115.7
2018-Jan-11 01:28S 39°03' E 145°51'715.1
2018-Jan-11 01:00S 39°06' E 145°59'715.1
2018-Jan-11 00:30S 39°10' E 146°08'914.8
2018-Jan-10 23:54S 39°13' E 146°18'1414.7
2018-Jan-10 22:58S 39°08' E 146°35'714.6
2018-Jan-10 22:30S 39°06' E 146°43'714.6
2018-Jan-10 22:00S 39°04' E 146°52'814.8
2018-Jan-10 21:29S 39°01' E 147°02'1015.0
2018-Jan-10 20:49S 38°58' E 147°14'4115.7
2018-Jan-10 18:13S 38°45' E 148°04'2115.6
2018-Jan-10 16:53S 38°37' E 148°28'915.4
2018-Jan-10 16:16S 38°32' E 148°39'615.1
2018-Jan-10 15:51S 38°28' E 148°45'615.2
2018-Jan-10 15:29S 38°25' E 148°51'815.2
2018-Jan-10 14:56S 38°20' E 148°59'615.3
2018-Jan-10 14:30S 38°16' E 149°06'815.2
2018-Jan-10 13:58S 38°11' E 149°14'1615.2
2018-Jan-10 12:55S 38°02' E 149°31'261 5.6
2018-Jan-08 14:37S 34°02' E 151°41'215.0
2018-Jan-08 14:30S 34°02' E 151°42'2714.2
2018-Jan-08 12:37S 33°49' E 152°11'214.0
2018-Jan-08 12:30S 33°48' E 152°13'714.6
2018-Jan-08 12:00S 33°44' E 152°20'714.9
2018-Jan-08 11:31S 33°40' E 152°27'815.6
2018-Jan-08 11:01S 33°36' E 152°35'816.2
2018-Jan-08 10:30S 33°31' E 152°43'1016.5
2018-Jan-08 09:55S 33°24' E 152°51'716.6
2018-Jan-08 09:29S 33°18' E 152°56'816.8
2018-Jan-08 09:01S 33°12' E 153°02'816.6
2018-Jan-08 08:30S 33°05' E 153°08'816.3
2018-Jan-08 08:01S 32°58' E 153°13'916.0
2018-Jan-08 07:28S 32°52' E 153°19'715.7
2018-Jan-08 07:01S 32°46' E 153°24'815.9
2018-Jan-08 06:30S 32°39' E 153°30'815.9
2018-Jan-08 06:00S 32°33' E 153°36'816.1
2018-Jan-08 05:31S 32°26' E 153°41'815.5
2018-Jan-08 05:00S 32°20' E 153°47'714.9
2018-Jan-08 04:31S 32°13' E 153°51'21218.2
2018-Jan-07 16:53S 28°42' E 153°49'1520.3
2018-Jan-07 16:08S 28°26' E 153°49'320.9
2018-Jan-07 16:01S 28°24' E 153°49'1121.0
2018-Jan-07 15:30S 28°13' E 153°49'1020.8
2018-Jan-07 15:01S 28°03' E 153°49'1020.2
2018-Jan-07 14:31S 27°53' E 153°48'1020.0
2018-Jan-07 14:01S 27°43' E 153°46'1020.0
2018-Jan-07 13:30S 27°33' E 153°44'1019.6
2018-Jan-07 13:01S 27°23' E 153°42'1019.4
2018-Jan-07 12:29S 27°13' E 153°41'919.6
2018-Jan-07 12:01S 27°04' E 153°39'1019.8
2018-Jan-07 11:30S 26°55' E 153°34'1019.2
2018-Jan-07 10:59S 26°50' E 153°25'918.0
2018-Jan-07 10:31S 26°45' E 153°16'510.5
2018-Jan-07 10:00S 26°43' E 153°11'714.4
2018-Jan-07 09:31S 26°50' E 153°09'917.3
2018-Jan-07 09:01S 26°58' E 153°13'816.4
2018-Jan-07 08:31S 27°05' E 153°19'816.7
2018-Jan-07 08:01S 27°13' E 153°20'815.8
2018-Jan-07 07:30S 27°18' E 153°13'610.7
2018-Jan-07 06:58S 27°23' E 153°10'0 0.0
2018-Jan-07 06:25S 27°23' E 153°10'0 0.0
2018-Jan-07 05:58S 27°23' E 153°10'0 0.0
2018-Jan-07 05:28S 27°23' E 153°10'0 0.0
2018-Jan-07 04:58S 27°23' E 153°10'0 0.0
2018-Jan-07 04:28S 27°23' E 153°10'0 0.0
2018-Jan-07 03:58S 27°23' E 153°10'0 0.0
2018-Jan-07 03:28S 27°23' E 153°10'0 0.0
2018-Jan-07 02:58S 27°23' E 153°10'0 0.0
2018-Jan-07 02:28S 27°23' E 153°10'0 0.0
2018-Jan-07 01:58S 27°23' E 153°10'0 0.0
2018-Jan-07 01:28S 27°23' E 153°10'0 0.0
2018-Jan-07 00:28S 27°23' E 153°10'0 0.0
2018-Jan-06 23:58S 27°23' E 153°10'0 0.0
2018-Jan-06 23:25S 27°23' E 153°10'0 0.0
2018-Jan-06 22:58S 27°23' E 153°10'0 0.0
2018-Jan-06 22:28S 27°23' E 153°10'0 0.0
2018-Jan-06 21:58S 27°23' E 153°10'0 0.0
2018-Jan-06 21:28S 27°23' E 153°10'0 0.0
2018-Jan-06 20:58S 27°23' E 153°10'0 0.0
2018-Jan-06 20:28S 27°23' E 153°10'0 0.0
2018-Jan-06 19:58S 27°23' E 153°10'0 0.0
2018-Jan-06 19:28S 27°23' E 153°10'0 0.0
2018-Jan-06 18:58S 27°23' E 153°10'0 0.0
2018-Jan-06 18:28S 27°23' E 153°10'0 0.0
2018-Jan-06 17:58S 27°23' E 153°10'0 0.0
2018-Jan-06 17:28S 27°23' E 153°10'0 0.0
2018-Jan-06 16:58S 27°23' E 153°10'0 0.0
2018-Jan-06 16:28S 27°23' E 153°10'0 0.0
2018-Jan-06 16:00S 27°23' E 153°10'1 2.7
2018-Jan-06 15:30S 27°21' E 153°11'612.8
2018-Jan-06 15:01S 27°17' E 153°15'815.4
2018-Jan-06 14:31S 27°11' E 153°21'816.0
2018-Jan-06 14:01S 27°03' E 153°18'815.8
2018-Jan-06 13:31S 26°57' E 153°13'815.5
2018-Jan-06 13:01S 26°50' E 153°09'713.5
2018-Jan-06 12:30S 26°43' E 153°11'3 5.1
2018-Jan-06 12:00S 26°41' E 153°13'3 5.4
2018-Jan-06 11:30S 26°39' E 153°14'3 6.1
2018-Jan-06 11:00S 26°36' E 153°15'713.3
2018-Jan-06 10:30S 26°29' E 153°16'816.7
2018-Jan-06 10:00S 26°21' E 153°18'917.0
2018-Jan-06 09:30S 26°13' E 153°20'917.8
2018-Jan-06 09:00S 26°04' E 153°22'  

Dump ship's entire track history